sensor_id;sensor_type;location;lat;lon;timestamp;pressure;altitude;pressure_sealevel;temperature;humidity
61337;BME280;47212;41.326;2.104;2023-08-06T00:03:41;101299.25;;;24.92;55.57
61337;BME280;47212;41.326;2.104;2023-08-06T00:08:47;101299.47;;;24.87;55.13
61337;BME280;47212;41.326;2.104;2023-08-06T00:14:00;101292.16;;;24.82;55.18
61337;BME280;47212;41.326;2.104;2023-08-06T00:19:11;101294.00;;;24.78;55.27
61337;BME280;47212;41.326;2.104;2023-08-06T00:24:18;101291.91;;;24.75;54.88
61337;BME280;47212;41.326;2.104;2023-08-06T00:29:20;101292.59;;;24.72;54.87
61337;BME280;47212;41.326;2.104;2023-08-06T00:34:28;101288.06;;;24.67;55.39
61337;BME280;47212;41.326;2.104;2023-08-06T00:39:31;101289.91;;;24.63;55.59
61337;BME280;47212;41.326;2.104;2023-08-06T00:44:36;101296.16;;;24.60;55.30
61337;BME280;47212;41.326;2.104;2023-08-06T00:49:47;101295.22;;;24.56;55.36
61337;BME280;47212;41.326;2.104;2023-08-06T00:54:52;101291.50;;;24.52;55.40
61337;BME280;47212;41.326;2.104;2023-08-06T00:59:59;101301.69;;;24.48;55.57
61337;BME280;47212;41.326;2.104;2023-08-06T01:15:48;101312.94;;;24.97;54.13
61337;BME280;47212;41.326;2.104;2023-08-06T01:20:51;101303.16;;;24.78;54.55
61337;BME280;47212;41.326;2.104;2023-08-06T01:31:01;101303.31;;;24.49;55.11
61337;BME280;47212;41.326;2.104;2023-08-06T01:36:05;101293.78;;;24.38;55.21
61337;BME280;47212;41.326;2.104;2023-08-06T01:41:08;101295.81;;;24.29;55.85
61337;BME280;47212;41.326;2.104;2023-08-06T01:46:11;101289.94;;;24.22;56.03
61337;BME280;47212;41.326;2.104;2023-08-06T01:51:13;101285.41;;;24.17;56.33
61337;BME280;47212;41.326;2.104;2023-08-06T01:56:15;101295.25;;;24.14;56.35
61337;BME280;47212;41.326;2.104;2023-08-06T02:01:18;101295.91;;;24.11;56.59
61337;BME280;47212;41.326;2.104;2023-08-06T02:06:22;101304.13;;;24.08;56.66
61337;BME280;47212;41.326;2.104;2023-08-06T02:11:24;101302.16;;;24.08;56.84
61337;BME280;47212;41.326;2.104;2023-08-06T02:16:28;101302.16;;;24.08;56.99
61337;BME280;47212;41.326;2.104;2023-08-06T02:21:30;101307.72;;;24.08;56.74
61337;BME280;47212;41.326;2.104;2023-08-06T02:26:32;101300.53;;;24.07;56.75
61337;BME280;47212;41.326;2.104;2023-08-06T02:31:34;101315.25;;;24.08;56.37
61337;BME280;47212;41.326;2.104;2023-08-06T02:36:36;101325.91;;;24.06;56.38
61337;BME280;47212;41.326;2.104;2023-08-06T02:41:39;101316.28;;;24.03;56.44
61337;BME280;47212;41.326;2.104;2023-08-06T02:46:41;101319.25;;;23.98;56.39
61337;BME280;47212;41.326;2.104;2023-08-06T02:51:45;101306.03;;;23.95;56.80
61337;BME280;47212;41.326;2.104;2023-08-06T02:56:47;101310.16;;;23.89;56.59
61337;BME280;47212;41.326;2.104;2023-08-06T03:01:57;101302.03;;;23.84;56.25
61337;BME280;47212;41.326;2.104;2023-08-06T03:07:07;101303.53;;;23.81;56.69
61337;BME280;47212;41.326;2.104;2023-08-06T03:12:20;101310.56;;;23.79;57.05
61337;BME280;47212;41.326;2.104;2023-08-06T03:17:23;101317.75;;;23.80;56.67
61337;BME280;47212;41.326;2.104;2023-08-06T03:22:25;101312.19;;;23.80;56.79
61337;BME280;47212;41.326;2.104;2023-08-06T03:27:29;101303.03;;;23.79;56.97
61337;BME280;47212;41.326;2.104;2023-08-06T03:32:31;101302.56;;;23.77;57.15
61337;BME280;47212;41.326;2.104;2023-08-06T03:37:34;101312.53;;;23.78;57.02
61337;BME280;47212;41.326;2.104;2023-08-06T03:42:36;101312.88;;;23.77;57.15
61337;BME280;47212;41.326;2.104;2023-08-06T03:47:38;101308.47;;;23.76;56.85
61337;BME280;47212;41.326;2.104;2023-08-06T03:52:41;101321.56;;;23.75;57.23
61337;BME280;47212;41.326;2.104;2023-08-06T03:57:45;101318.28;;;23.73;57.33
61337;BME280;47212;41.326;2.104;2023-08-06T04:03:06;101313.56;;;23.74;58.02
61337;BME280;47212;41.326;2.104;2023-08-06T04:09:01;101317.16;;;23.74;57.80
61337;BME280;47212;41.326;2.104;2023-08-06T04:14:05;101309.63;;;23.75;57.88
61337;BME280;47212;41.326;2.104;2023-08-06T04:19:08;101316.81;;;23.76;58.08
61337;BME280;47212;41.326;2.104;2023-08-06T04:26:03;101320.75;;;23.75;57.77
61337;BME280;47212;41.326;2.104;2023-08-06T04:33:01;101327.09;;;23.75;57.80
61337;BME280;47212;41.326;2.104;2023-08-06T04:38:32;101336.25;;;23.76;57.91
61337;BME280;47212;41.326;2.104;2023-08-06T04:43:36;101323.03;;;23.73;57.91
61337;BME280;47212;41.326;2.104;2023-08-06T04:48:49;101329.41;;;23.73;58.54
61337;BME280;47212;41.326;2.104;2023-08-06T04:53:56;101331.38;;;23.73;58.12
61337;BME280;47212;41.326;2.104;2023-08-06T04:59:05;101334.63;;;23.75;58.55
61337;BME280;47212;41.326;2.104;2023-08-06T05:04:08;101337.88;;;23.77;58.13
61337;BME280;47212;41.326;2.104;2023-08-06T05:09:10;101342.63;;;23.76;58.09
61337;BME280;47212;41.326;2.104;2023-08-06T05:14:13;101347.72;;;23.74;58.09
61337;BME280;47212;41.326;2.104;2023-08-06T05:19:17;101345.28;;;23.73;58.05
61337;BME280;47212;41.326;2.104;2023-08-06T05:24:23;101347.72;;;23.74;58.70
61337;BME280;47212;41.326;2.104;2023-08-06T05:29:35;101363.59;;;23.74;58.34
61337;BME280;47212;41.326;2.104;2023-08-06T05:34:45;101377.97;;;23.76;58.63
61337;BME280;47212;41.326;2.104;2023-08-06T05:39:51;101381.34;;;23.81;58.40
61337;BME280;47212;41.326;2.104;2023-08-06T05:44:53;101383.28;;;23.90;58.23
61337;BME280;47212;41.326;2.104;2023-08-06T05:49:56;101394.34;;;23.98;58.18
61337;BME280;47212;41.326;2.104;2023-08-06T05:54:58;101408.53;;;24.05;57.16
61337;BME280;47212;41.326;2.104;2023-08-06T06:00:01;101413.88;;;24.10;56.43
61337;BME280;47212;41.326;2.104;2023-08-06T06:05:16;101411.09;;;24.10;56.61
61337;BME280;47212;41.326;2.104;2023-08-06T06:10:19;101419.31;;;24.07;56.59
61337;BME280;47212;41.326;2.104;2023-08-06T06:15:24;101429.63;;;24.06;55.91
61337;BME280;47212;41.326;2.104;2023-08-06T06:20:27;101449.09;;;24.06;55.23
61337;BME280;47212;41.326;2.104;2023-08-06T06:25:32;101441.91;;;24.05;55.50
61337;BME280;47212;41.326;2.104;2023-08-06T06:30:37;101452.34;;;24.08;55.60
61337;BME280;47212;41.326;2.104;2023-08-06T06:35:55;101459.06;;;24.07;56.25
61337;BME280;47212;41.326;2.104;2023-08-06T06:41:03;101461.56;;;24.00;55.83
61337;BME280;47212;41.326;2.104;2023-08-06T06:46:06;101456.66;;;23.97;55.62
61337;BME280;47212;41.326;2.104;2023-08-06T06:51:08;101474.31;;;24.01;55.25
61337;BME280;47212;41.326;2.104;2023-08-06T06:56:15;101472.81;;;24.04;55.00
61337;BME280;47212;41.326;2.104;2023-08-06T07:01:21;101468.22;;;24.08;54.77
61337;BME280;47212;41.326;2.104;2023-08-06T07:06:28;101476.03;;;24.14;54.19
61337;BME280;47212;41.326;2.104;2023-08-06T07:11:37;101472.56;;;24.18;54.41
61337;BME280;47212;41.326;2.104;2023-08-06T07:16:51;101474.50;;;24.26;53.81
61337;BME280;47212;41.326;2.104;2023-08-06T07:21:53;101472.53;;;24.35;53.69
61337;BME280;47212;41.326;2.104;2023-08-06T07:26:57;101484.47;;;24.56;52.86
61337;BME280;47212;41.326;2.104;2023-08-06T07:32:02;101481.53;;;24.94;52.27
61337;BME280;47212;41.326;2.104;2023-08-06T07:37:05;101477.53;;;25.04;52.42
61337;BME280;47212;41.326;2.104;2023-08-06T07:42:10;101478.47;;;25.29;51.60
61337;BME280;47212;41.326;2.104;2023-08-06T07:47:14;101480.66;;;25.23;51.23
61337;BME280;47212;41.326;2.104;2023-08-06T07:52:16;101472.66;;;25.22;51.55
61337;BME280;47212;41.326;2.104;2023-08-06T07:57:18;101477.00;;;25.56;51.14
61337;BME280;47212;41.326;2.104;2023-08-06T08:02:21;101477.72;;;25.65;50.59
61337;BME280;47212;41.326;2.104;2023-08-06T08:07:25;101472.03;;;25.61;50.96
61337;BME280;47212;41.326;2.104;2023-08-06T08:12:39;101487.94;;;25.61;50.97
61337;BME280;47212;41.326;2.104;2023-08-06T08:17:42;101492.81;;;25.64;51.18
61337;BME280;47212;41.326;2.104;2023-08-06T08:22:51;101498.91;;;25.66;51.14
61337;BME280;47212;41.326;2.104;2023-08-06T08:27:55;101499.13;;;25.73;51.80
61337;BME280;47212;41.326;2.104;2023-08-06T08:33:05;101480.81;;;26.09;51.22
61337;BME280;47212;41.326;2.104;2023-08-06T08:38:07;101490.81;;;26.34;51.61
61337;BME280;47212;41.326;2.104;2023-08-06T08:43:11;101494.78;;;26.33;51.90
61337;BME280;47212;41.326;2.104;2023-08-06T08:48:14;101499.66;;;26.36;52.82
61337;BME280;47212;41.326;2.104;2023-08-06T08:53:18;101501.03;;;26.42;54.14
61337;BME280;47212;41.326;2.104;2023-08-06T08:58:20;101499.97;;;26.47;56.11
61337;BME280;47212;41.326;2.104;2023-08-06T09:03:23;101509.66;;;26.37;57.28
61337;BME280;47212;41.326;2.104;2023-08-06T09:08:29;101500.56;;;26.28;58.55
61337;BME280;47212;41.326;2.104;2023-08-06T09:13:36;101506.38;;;26.23;59.53
61337;BME280;47212;41.326;2.104;2023-08-06T09:18:43;101511.28;;;26.01;60.82
61337;BME280;47212;41.326;2.104;2023-08-06T09:23:48;101527.72;;;25.82;62.87
61337;BME280;47212;41.326;2.104;2023-08-06T09:29:01;101528.19;;;25.72;63.49
61337;BME280;47212;41.326;2.104;2023-08-06T09:34:19;101524.94;;;25.70;65.03
61337;BME280;47212;41.326;2.104;2023-08-06T09:39:27;101529.94;;;25.77;65.47
61337;BME280;47212;41.326;2.104;2023-08-06T09:44:32;101531.69;;;25.81;64.76
61337;BME280;47212;41.326;2.104;2023-08-06T09:54:37;101531.22;;;25.79;63.49
61337;BME280;47212;41.326;2.104;2023-08-06T09:59:43;101536.44;;;25.81;64.15
61337;BME280;47212;41.326;2.104;2023-08-06T10:04:55;101534.72;;;26.00;63.70
61337;BME280;47212;41.326;2.104;2023-08-06T10:10:02;101536.97;;;26.44;62.61
61337;BME280;47212;41.326;2.104;2023-08-06T10:15:09;101534.84;;;26.65;62.49
61337;BME280;47212;41.326;2.104;2023-08-06T10:20:13;101542.28;;;26.73;62.01
61337;BME280;47212;41.326;2.104;2023-08-06T10:25:18;101542.41;;;26.64;62.07
61337;BME280;47212;41.326;2.104;2023-08-06T10:30:27;101548.72;;;26.37;62.63
61337;BME280;47212;41.326;2.104;2023-08-06T10:35:46;101534.88;;;26.16;64.04
61337;BME280;47212;41.326;2.104;2023-08-06T10:46:09;101523.81;;;26.20;63.30
61337;BME280;47212;41.326;2.104;2023-08-06T10:51:14;101531.94;;;26.00;64.15
61337;BME280;47212;41.326;2.104;2023-08-06T10:56:21;101536.38;;;26.14;63.22
61337;BME280;47212;41.326;2.104;2023-08-06T11:01:31;101539.06;;;26.10;63.39
61337;BME280;47212;41.326;2.104;2023-08-06T11:06:42;101545.41;;;25.98;63.51
61337;BME280;47212;41.326;2.104;2023-08-06T11:11:46;101531.00;;;25.96;64.04
61337;BME280;47212;41.326;2.104;2023-08-06T11:16:48;101533.59;;;26.01;63.62
61337;BME280;47212;41.326;2.104;2023-08-06T11:21:51;101528.13;;;26.05;63.53
61337;BME280;47212;41.326;2.104;2023-08-06T11:26:56;101525.22;;;26.14;63.26
61337;BME280;47212;41.326;2.104;2023-08-06T11:32:05;101519.88;;;26.21;63.05
61337;BME280;47212;41.326;2.104;2023-08-06T11:37:07;101515.44;;;26.56;61.68
61337;BME280;47212;41.326;2.104;2023-08-06T11:42:11;101514.13;;;26.66;61.17
61337;BME280;47212;41.326;2.104;2023-08-06T11:47:16;101511.66;;;26.89;60.35
61337;BME280;47212;41.326;2.104;2023-08-06T11:52:20;101504.25;;;27.09;59.88
61337;BME280;47212;41.326;2.104;2023-08-06T11:57:23;101501.69;;;27.32;59.28
61337;BME280;47212;41.326;2.104;2023-08-06T12:02:25;101491.19;;;27.56;58.90
61337;BME280;47212;41.326;2.104;2023-08-06T12:07:32;101500.75;;;27.55;58.42
61337;BME280;47212;41.326;2.104;2023-08-06T12:12:36;101491.44;;;27.51;58.47
61337;BME280;47212;41.326;2.104;2023-08-06T12:17:39;101505.72;;;27.18;58.60
61337;BME280;47212;41.326;2.104;2023-08-06T12:22:42;101505.63;;;27.15;59.28
61337;BME280;47212;41.326;2.104;2023-08-06T12:27:46;101506.81;;;27.14;58.84
61337;BME280;47212;41.326;2.104;2023-08-06T12:32:51;101500.69;;;27.24;58.27
61337;BME280;47212;41.326;2.104;2023-08-06T12:37:55;101497.69;;;26.89;59.04
61337;BME280;47212;41.326;2.104;2023-08-06T12:43:03;101510.59;;;26.81;59.57
61337;BME280;47212;41.326;2.104;2023-08-06T12:48:05;101496.28;;;26.83;59.11
61337;BME280;47212;41.326;2.104;2023-08-06T12:53:09;101496.72;;;26.97;59.26
61337;BME280;47212;41.326;2.104;2023-08-06T12:58:16;101505.59;;;26.75;59.36
61337;BME280;47212;41.326;2.104;2023-08-06T13:03:22;101487.38;;;26.65;59.47
61337;BME280;47212;41.326;2.104;2023-08-06T13:08:24;101486.13;;;26.50;60.13
61337;BME280;47212;41.326;2.104;2023-08-06T13:13:26;101494.28;;;26.43;60.29
61337;BME280;47212;41.326;2.104;2023-08-06T13:18:28;101495.91;;;26.44;60.44
61337;BME280;47212;41.326;2.104;2023-08-06T13:23:31;101485.44;;;26.41;60.03
61337;BME280;47212;41.326;2.104;2023-08-06T13:28:33;101492.19;;;26.28;61.03
61337;BME280;47212;41.326;2.104;2023-08-06T13:33:35;101498.22;;;26.30;61.18
61337;BME280;47212;41.326;2.104;2023-08-06T13:38:38;101511.03;;;26.07;61.19
61337;BME280;47212;41.326;2.104;2023-08-06T13:43:49;101499.63;;;25.87;62.04
61337;BME280;47212;41.326;2.104;2023-08-06T13:48:54;101496.59;;;25.92;61.71
61337;BME280;47212;41.326;2.104;2023-08-06T13:54:21;101500.53;;;25.91;62.87
61337;BME280;47212;41.326;2.104;2023-08-06T13:59:24;101495.53;;;25.85;62.47
61337;BME280;47212;41.326;2.104;2023-08-06T14:04:26;101500.31;;;25.96;61.96
61337;BME280;47212;41.326;2.104;2023-08-06T14:09:28;101483.38;;;26.14;62.13
61337;BME280;47212;41.326;2.104;2023-08-06T14:14:32;101491.84;;;26.17;61.97
61337;BME280;47212;41.326;2.104;2023-08-06T14:19:39;101485.00;;;26.02;62.10
61337;BME280;47212;41.326;2.104;2023-08-06T14:24:48;101484.84;;;25.99;62.24
61337;BME280;47212;41.326;2.104;2023-08-06T14:29:57;101476.72;;;25.94;62.76
61337;BME280;47212;41.326;2.104;2023-08-06T14:35:04;101478.00;;;25.84;62.91
61337;BME280;47212;41.326;2.104;2023-08-06T14:40:07;101473.31;;;25.64;63.47
61337;BME280;47212;41.326;2.104;2023-08-06T14:45:10;101473.41;;;25.55;63.89
61337;BME280;47212;41.326;2.104;2023-08-06T14:50:12;101477.00;;;25.56;64.30
61337;BME280;47212;41.326;2.104;2023-08-06T14:55:23;101479.56;;;25.61;64.39
61337;BME280;47212;41.326;2.104;2023-08-06T15:00:25;101475.63;;;25.62;63.64
61337;BME280;47212;41.326;2.104;2023-08-06T15:05:27;101481.47;;;25.69;63.79
61337;BME280;47212;41.326;2.104;2023-08-06T15:10:30;101491.06;;;25.59;64.20
61337;BME280;47212;41.326;2.104;2023-08-06T15:15:32;101477.94;;;25.60;64.47
61337;BME280;47212;41.326;2.104;2023-08-06T15:20:34;101491.41;;;25.58;63.95
61337;BME280;47212;41.326;2.104;2023-08-06T15:25:38;101490.34;;;25.50;64.93
61337;BME280;47212;41.326;2.104;2023-08-06T15:30:48;101482.59;;;25.56;64.84
61337;BME280;47212;41.326;2.104;2023-08-06T15:35:52;101500.47;;;25.55;64.85
61337;BME280;47212;41.326;2.104;2023-08-06T15:40:56;101489.53;;;25.50;65.48
61337;BME280;47212;41.326;2.104;2023-08-06T15:45:59;101493.94;;;25.38;65.43
61337;BME280;47212;41.326;2.104;2023-08-06T15:51:06;101490.22;;;25.34;65.17
61337;BME280;47212;41.326;2.104;2023-08-06T15:56:09;101491.72;;;25.32;65.20
61337;BME280;47212;41.326;2.104;2023-08-06T16:01:14;101507.16;;;25.29;65.51
61337;BME280;47212;41.326;2.104;2023-08-06T16:06:27;101507.63;;;25.31;65.52
61337;BME280;47212;41.326;2.104;2023-08-06T16:11:33;101501.31;;;25.22;65.06
61337;BME280;47212;41.326;2.104;2023-08-06T16:16:45;101494.38;;;25.28;65.21
61337;BME280;47212;41.326;2.104;2023-08-06T16:21:49;101500.56;;;25.46;65.23
61337;BME280;47212;41.326;2.104;2023-08-06T16:26:54;101504.25;;;25.71;63.97
61337;BME280;47212;41.326;2.104;2023-08-06T16:32:02;101491.47;;;25.82;64.01
61337;BME280;47212;41.326;2.104;2023-08-06T16:37:06;101481.94;;;25.71;64.01
61337;BME280;47212;41.326;2.104;2023-08-06T16:42:13;101477.25;;;25.63;63.76
61337;BME280;47212;41.326;2.104;2023-08-06T16:47:18;101488.69;;;25.70;63.33
61337;BME280;47212;41.326;2.104;2023-08-06T16:52:24;101480.16;;;25.54;64.14
61337;BME280;47212;41.326;2.104;2023-08-06T16:57:35;101478.59;;;25.32;64.72
61337;BME280;47212;41.326;2.104;2023-08-06T17:02:43;101471.69;;;25.18;64.48
61337;BME280;47212;41.326;2.104;2023-08-06T17:07:54;101479.25;;;25.17;64.82
61337;BME280;47212;41.326;2.104;2023-08-06T17:12:57;101478.78;;;25.15;64.54
61337;BME280;47212;41.326;2.104;2023-08-06T17:18:17;101479.84;;;25.23;64.66
61337;BME280;47212;41.326;2.104;2023-08-06T17:23:22;101479.97;;;25.26;63.98
61337;BME280;47212;41.326;2.104;2023-08-06T17:28:24;101471.25;;;25.28;64.39
61337;BME280;47212;41.326;2.104;2023-08-06T17:33:26;101485.75;;;25.21;64.28
61337;BME280;47212;41.326;2.104;2023-08-06T17:38:29;101482.50;;;25.19;64.18
61337;BME280;47212;41.326;2.104;2023-08-06T17:43:31;101489.91;;;25.15;64.58
61337;BME280;47212;41.326;2.104;2023-08-06T17:48:33;101501.72;;;25.12;64.16
61337;BME280;47212;41.326;2.104;2023-08-06T17:53:36;101498.94;;;25.12;64.09
61337;BME280;47212;41.326;2.104;2023-08-06T17:58:38;101511.38;;;25.15;64.39
61337;BME280;47212;41.326;2.104;2023-08-06T18:03:41;101517.97;;;25.10;64.25
61337;BME280;47212;41.326;2.104;2023-08-06T18:08:45;101514.09;;;25.02;64.59
61337;BME280;47212;41.326;2.104;2023-08-06T18:13:47;101521.50;;;24.98;64.84
61337;BME280;47212;41.326;2.104;2023-08-06T18:18:51;101529.88;;;24.98;64.49
61337;BME280;47212;41.326;2.104;2023-08-06T18:24:00;101528.41;;;24.92;64.60
61337;BME280;47212;41.326;2.104;2023-08-06T18:29:02;101535.13;;;24.91;64.62
61337;BME280;47212;41.326;2.104;2023-08-06T18:34:04;101535.94;;;24.92;64.89
61337;BME280;47212;41.326;2.104;2023-08-06T18:39:13;101540.69;;;24.91;64.66
61337;BME280;47212;41.326;2.104;2023-08-06T18:44:21;101544.78;;;24.94;64.41
61337;BME280;47212;41.326;2.104;2023-08-06T18:49:24;101543.97;;;24.93;64.19
61337;BME280;47212;41.326;2.104;2023-08-06T18:54:26;101544.03;;;24.85;64.29
61337;BME280;47212;41.326;2.104;2023-08-06T18:59:31;101545.06;;;24.80;64.63
61337;BME280;47212;41.326;2.104;2023-08-06T19:04:35;101544.44;;;24.74;63.99
61337;BME280;47212;41.326;2.104;2023-08-06T19:09:39;101545.59;;;24.73;64.59
61337;BME280;47212;41.326;2.104;2023-08-06T19:14:47;101557.41;;;24.70;64.22
61337;BME280;47212;41.326;2.104;2023-08-06T19:19:52;101547.28;;;24.66;64.28
61337;BME280;47212;41.326;2.104;2023-08-06T19:25:06;101556.47;;;24.66;64.36
61337;BME280;47212;41.326;2.104;2023-08-06T19:30:10;101556.59;;;24.70;64.53
61337;BME280;47212;41.326;2.104;2023-08-06T19:35:19;101567.41;;;24.71;64.70
61337;BME280;47212;41.326;2.104;2023-08-06T19:40:24;101569.34;;;24.71;64.34
61337;BME280;47212;41.326;2.104;2023-08-06T19:45:50;101574.13;;;24.70;64.69
61337;BME280;47212;41.326;2.104;2023-08-06T19:50:55;101581.13;;;24.76;64.28
61337;BME280;47212;41.326;2.104;2023-08-06T19:56:09;101595.50;;;24.78;64.05
61337;BME280;47212;41.326;2.104;2023-08-06T20:01:11;101600.31;;;24.69;63.93
61337;BME280;47212;41.326;2.104;2023-08-06T20:06:16;101605.28;;;24.64;64.01
61337;BME280;47212;41.326;2.104;2023-08-06T20:11:20;101609.22;;;24.63;64.34
61337;BME280;47212;41.326;2.104;2023-08-06T20:16:22;101600.56;;;24.56;64.01
61337;BME280;47212;41.326;2.104;2023-08-06T20:21:25;101605.66;;;24.54;64.70
61337;BME280;47212;41.326;2.104;2023-08-06T20:26:27;101622.50;;;24.57;64.52
61337;BME280;47212;41.326;2.104;2023-08-06T20:31:31;101622.50;;;24.57;64.39
61337;BME280;47212;41.326;2.104;2023-08-06T20:36:33;101624.47;;;24.57;63.83
61337;BME280;47212;41.326;2.104;2023-08-06T20:41:35;101626.25;;;24.61;63.98
61337;BME280;47212;41.326;2.104;2023-08-06T20:46:46;101634.41;;;24.66;63.71
61337;BME280;47212;41.326;2.104;2023-08-06T20:51:50;101638.34;;;24.65;63.58
61337;BME280;47212;41.326;2.104;2023-08-06T20:56:55;101641.94;;;24.66;63.15
61337;BME280;47212;41.326;2.104;2023-08-06T21:01:57;101637.38;;;24.61;63.37
61337;BME280;47212;41.326;2.104;2023-08-06T21:06:59;101630.03;;;24.57;63.37
61337;BME280;47212;41.326;2.104;2023-08-06T21:12:02;101632.69;;;24.53;63.75
61337;BME280;47212;41.326;2.104;2023-08-06T21:17:04;101632.19;;;24.51;64.23
61337;BME280;47212;41.326;2.104;2023-08-06T21:22:07;101628.25;;;24.52;63.74
61337;BME280;47212;41.326;2.104;2023-08-06T21:27:10;101621.34;;;24.58;63.67
61337;BME280;47212;41.326;2.104;2023-08-06T21:32:12;101626.09;;;24.58;63.58
61337;BME280;47212;41.326;2.104;2023-08-06T21:37:14;101633.97;;;24.56;63.77
61337;BME280;47212;41.326;2.104;2023-08-06T21:42:16;101641.03;;;24.53;63.81
61337;BME280;47212;41.326;2.104;2023-08-06T21:47:22;101638.72;;;24.55;63.61
61337;BME280;47212;41.326;2.104;2023-08-06T21:52:24;101643.63;;;24.58;63.56
61337;BME280;47212;41.326;2.104;2023-08-06T21:57:27;101643.75;;;24.62;63.79
61337;BME280;47212;41.326;2.104;2023-08-06T22:02:29;101644.44;;;24.59;63.19
61337;BME280;47212;41.326;2.104;2023-08-06T22:07:32;101636.72;;;24.64;62.74
61337;BME280;47212;41.326;2.104;2023-08-06T22:12:34;101655.19;;;24.69;63.00
61337;BME280;47212;41.326;2.104;2023-08-06T22:17:36;101651.72;;;24.72;62.63
61337;BME280;47212;41.326;2.104;2023-08-06T22:22:38;101659.06;;;24.76;62.54
61337;BME280;47212;41.326;2.104;2023-08-06T22:27:41;101657.91;;;24.77;62.58
61337;BME280;47212;41.326;2.104;2023-08-06T22:32:51;101661.38;;;24.74;61.84
61337;BME280;47212;41.326;2.104;2023-08-06T22:37:56;101656.97;;;24.73;62.17
61337;BME280;47212;41.326;2.104;2023-08-06T22:43:03;101659.94;;;24.68;61.87
61337;BME280;47212;41.326;2.104;2023-08-06T22:48:17;101658.31;;;24.67;62.12
61337;BME280;47212;41.326;2.104;2023-08-06T22:53:25;101657.81;;;24.65;62.22
61337;BME280;47212;41.326;2.104;2023-08-06T22:58:32;101654.56;;;24.63;61.91
61337;BME280;47212;41.326;2.104;2023-08-06T23:03:41;101649.19;;;24.58;62.25
61337;BME280;47212;41.326;2.104;2023-08-06T23:08:49;101649.84;;;24.55;62.04
61337;BME280;47212;41.326;2.104;2023-08-06T23:14:04;101651.00;;;24.54;61.75
61337;BME280;47212;41.326;2.104;2023-08-06T23:19:10;101651.50;;;24.56;61.69
61337;BME280;47212;41.326;2.104;2023-08-06T23:24:16;101654.28;;;24.56;62.02
61337;BME280;47212;41.326;2.104;2023-08-06T23:29:19;101661.00;;;24.55;61.97
61337;BME280;47212;41.326;2.104;2023-08-06T23:34:21;101647.88;;;24.56;61.55
61337;BME280;47212;41.326;2.104;2023-08-06T23:39:23;101654.28;;;24.56;62.08
61337;BME280;47212;41.326;2.104;2023-08-06T23:44:25;101642.00;;;24.57;62.12
61337;BME280;47212;41.326;2.104;2023-08-06T23:49:27;101650.00;;;24.59;61.91
61337;BME280;47212;41.326;2.104;2023-08-06T23:54:31;101650.16;;;24.62;62.06
61337;BME280;47212;41.326;2.104;2023-08-06T23:59:40;101651.78;;;24.63;61.36
